sensor_id;sensor_type;location;lat;lon;timestamp;P1;durP1;ratioP1;P2;durP2;ratioP2
16890;SDS011;8562;52.246;20.966;2023-03-01T00:01:20;29.63;;;16.13;;
16890;SDS011;8562;52.246;20.966;2023-03-01T00:03:45;19.70;;;12.60;;
16890;SDS011;8562;52.246;20.966;2023-03-01T00:06:11;17.23;;;12.57;;
16890;SDS011;8562;52.246;20.966;2023-03-01T00:08:36;22.07;;;11.87;;
16890;SDS011;8562;52.246;20.966;2023-03-01T00:11:14;23.70;;;12.30;;
16890;SDS011;8562;52.246;20.966;2023-03-01T00:13:40;19.47;;;11.23;;
16890;SDS011;8562;52.246;20.966;2023-03-01T00:16:07;25.80;;;13.83;;
16890;SDS011;8562;52.246;20.966;2023-03-01T00:18:33;18.83;;;11.03;;
16890;SDS011;8562;52.246;20.966;2023-03-01T00:20:58;27.10;;;14.77;;
16890;SDS011;8562;52.246;20.966;2023-03-01T00:23:24;19.20;;;12.10;;
16890;SDS011;8562;52.246;20.966;2023-03-01T00:25:50;24.77;;;15.47;;
16890;SDS011;8562;52.246;20.966;2023-03-01T00:28:15;24.33;;;12.13;;
16890;SDS011;8562;52.246;20.966;2023-03-01T00:30:41;25.53;;;14.43;;
16890;SDS011;8562;52.246;20.966;2023-03-01T00:33:06;28.10;;;16.10;;
16890;SDS011;8562;52.246;20.966;2023-03-01T00:35:32;28.63;;;13.67;;
16890;SDS011;8562;52.246;20.966;2023-03-01T00:37:57;31.70;;;14.23;;
16890;SDS011;8562;52.246;20.966;2023-03-01T00:40:28;29.70;;;15.20;;
16890;SDS011;8562;52.246;20.966;2023-03-01T00:42:54;28.80;;;14.57;;
16890;SDS011;8562;52.246;20.966;2023-03-01T00:45:20;24.20;;;14.17;;
16890;SDS011;8562;52.246;20.966;2023-03-01T00:47:46;18.43;;;13.13;;
16890;SDS011;8562;52.246;20.966;2023-03-01T00:50:12;28.63;;;13.40;;
16890;SDS011;8562;52.246;20.966;2023-03-01T00:52:38;24.20;;;13.93;;
16890;SDS011;8562;52.246;20.966;2023-03-01T00:55:03;24.33;;;14.50;;
16890;SDS011;8562;52.246;20.966;2023-03-01T00:57:29;27.53;;;14.73;;
16890;SDS011;8562;52.246;20.966;2023-03-01T00:59:54;38.63;;;13.60;;
16890;SDS011;8562;52.246;20.966;2023-03-01T01:02:20;24.17;;;13.47;;
16890;SDS011;8562;52.246;20.966;2023-03-01T01:04:46;25.70;;;13.73;;
16890;SDS011;8562;52.246;20.966;2023-03-01T01:07:11;30.77;;;14.40;;
16890;SDS011;8562;52.246;20.966;2023-03-01T01:09:36;26.17;;;15.87;;
16890;SDS011;8562;52.246;20.966;2023-03-01T01:12:02;27.90;;;13.67;;
16890;SDS011;8562;52.246;20.966;2023-03-01T01:14:28;21.70;;;12.33;;
16890;SDS011;8562;52.246;20.966;2023-03-01T01:16:53;28.57;;;15.07;;
16890;SDS011;8562;52.246;20.966;2023-03-01T01:19:19;21.80;;;12.03;;
16890;SDS011;8562;52.246;20.966;2023-03-01T01:21:44;23.30;;;13.20;;
16890;SDS011;8562;52.246;20.966;2023-03-01T01:24:10;27.80;;;12.93;;
16890;SDS011;8562;52.246;20.966;2023-03-01T01:26:35;26.53;;;13.97;;
16890;SDS011;8562;52.246;20.966;2023-03-01T01:29:01;21.80;;;14.43;;
16890;SDS011;8562;52.246;20.966;2023-03-01T01:31:27;24.30;;;13.10;;
16890;SDS011;8562;52.246;20.966;2023-03-01T01:33:55;24.13;;;13.30;;
16890;SDS011;8562;52.246;20.966;2023-03-01T01:36:20;26.97;;;15.50;;
16890;SDS011;8562;52.246;20.966;2023-03-01T01:38:46;23.77;;;14.13;;
16890;SDS011;8562;52.246;20.966;2023-03-01T01:41:12;17.30;;;12.27;;
16890;SDS011;8562;52.246;20.966;2023-03-01T01:43:41;21.00;;;13.27;;
16890;SDS011;8562;52.246;20.966;2023-03-01T01:48:48;21.37;;;12.83;;
16890;SDS011;8562;52.246;20.966;2023-03-01T01:51:23;18.57;;;13.63;;
16890;SDS011;8562;52.246;20.966;2023-03-01T01:53:50;30.27;;;15.07;;
16890;SDS011;8562;52.246;20.966;2023-03-01T01:56:17;17.23;;;11.60;;
16890;SDS011;8562;52.246;20.966;2023-03-01T01:58:43;21.73;;;13.33;;
16890;SDS011;8562;52.246;20.966;2023-03-01T02:01:09;30.13;;;12.57;;
16890;SDS011;8562;52.246;20.966;2023-03-01T02:03:36;24.80;;;14.93;;
16890;SDS011;8562;52.246;20.966;2023-03-01T02:06:06;27.67;;;13.03;;
16890;SDS011;8562;52.246;20.966;2023-03-01T02:08:36;24.97;;;13.37;;
16890;SDS011;8562;52.246;20.966;2023-03-01T02:11:02;25.77;;;12.43;;
16890;SDS011;8562;52.246;20.966;2023-03-01T02:13:31;20.93;;;13.10;;
16890;SDS011;8562;52.246;20.966;2023-03-01T02:15:57;23.93;;;13.87;;
16890;SDS011;8562;52.246;20.966;2023-03-01T02:18:23;26.17;;;14.57;;
16890;SDS011;8562;52.246;20.966;2023-03-01T02:20:59;17.37;;;12.77;;
16890;SDS011;8562;52.246;20.966;2023-03-01T02:23:28;31.60;;;14.77;;
16890;SDS011;8562;52.246;20.966;2023-03-01T02:28:31;20.20;;;10.57;;
16890;SDS011;8562;52.246;20.966;2023-03-01T02:30:56;24.13;;;13.67;;
16890;SDS011;8562;52.246;20.966;2023-03-01T02:33:40;27.73;;;15.60;;
16890;SDS011;8562;52.246;20.966;2023-03-01T02:36:10;22.03;;;11.00;;
16890;SDS011;8562;52.246;20.966;2023-03-01T02:38:39;27.10;;;13.97;;
16890;SDS011;8562;52.246;20.966;2023-03-01T02:41:04;31.60;;;16.57;;
16890;SDS011;8562;52.246;20.966;2023-03-01T02:43:31;25.77;;;12.47;;
16890;SDS011;8562;52.246;20.966;2023-03-01T02:45:58;26.20;;;14.40;;
16890;SDS011;8562;52.246;20.966;2023-03-01T02:48:23;24.67;;;13.57;;
16890;SDS011;8562;52.246;20.966;2023-03-01T02:51:05;20.53;;;11.27;;
16890;SDS011;8562;52.246;20.966;2023-03-01T02:53:39;28.00;;;13.30;;
16890;SDS011;8562;52.246;20.966;2023-03-01T02:56:07;18.63;;;11.60;;
16890;SDS011;8562;52.246;20.966;2023-03-01T02:58:41;27.00;;;14.67;;
16890;SDS011;8562;52.246;20.966;2023-03-01T03:01:12;16.83;;;13.60;;
16890;SDS011;8562;52.246;20.966;2023-03-01T03:03:39;19.60;;;11.50;;
16890;SDS011;8562;52.246;20.966;2023-03-01T03:06:04;24.90;;;13.30;;
16890;SDS011;8562;52.246;20.966;2023-03-01T03:08:29;25.17;;;11.50;;
16890;SDS011;8562;52.246;20.966;2023-03-01T03:10:55;26.10;;;11.80;;
16890;SDS011;8562;52.246;20.966;2023-03-01T03:13:21;26.27;;;13.07;;
16890;SDS011;8562;52.246;20.966;2023-03-01T03:15:47;17.83;;;12.37;;
16890;SDS011;8562;52.246;20.966;2023-03-01T03:18:17;21.77;;;13.53;;
16890;SDS011;8562;52.246;20.966;2023-03-01T03:20:42;21.90;;;10.30;;
16890;SDS011;8562;52.246;20.966;2023-03-01T03:23:08;16.03;;;11.53;;
16890;SDS011;8562;52.246;20.966;2023-03-01T03:25:33;22.87;;;12.47;;
16890;SDS011;8562;52.246;20.966;2023-03-01T03:28:03;23.77;;;14.83;;
16890;SDS011;8562;52.246;20.966;2023-03-01T03:30:34;21.20;;;13.13;;
16890;SDS011;8562;52.246;20.966;2023-03-01T03:33:00;20.17;;;15.30;;
16890;SDS011;8562;52.246;20.966;2023-03-01T03:35:27;15.70;;;12.40;;
16890;SDS011;8562;52.246;20.966;2023-03-01T03:37:55;32.73;;;12.90;;
16890;SDS011;8562;52.246;20.966;2023-03-01T03:42:59;17.33;;;12.30;;
16890;SDS011;8562;52.246;20.966;2023-03-01T03:45:24;18.10;;;12.17;;
16890;SDS011;8562;52.246;20.966;2023-03-01T03:47:50;26.20;;;14.47;;
16890;SDS011;8562;52.246;20.966;2023-03-01T03:50:16;20.47;;;13.30;;
16890;SDS011;8562;52.246;20.966;2023-03-01T03:52:41;23.47;;;10.97;;
16890;SDS011;8562;52.246;20.966;2023-03-01T03:55:07;24.40;;;12.03;;
16890;SDS011;8562;52.246;20.966;2023-03-01T03:57:39;17.07;;;10.40;;
16890;SDS011;8562;52.246;20.966;2023-03-01T04:00:05;20.87;;;11.97;;
16890;SDS011;8562;52.246;20.966;2023-03-01T04:02:38;25.77;;;13.13;;
16890;SDS011;8562;52.246;20.966;2023-03-01T04:05:03;24.63;;;12.43;;
16890;SDS011;8562;52.246;20.966;2023-03-01T04:07:29;22.67;;;11.17;;
16890;SDS011;8562;52.246;20.966;2023-03-01T04:09:54;21.77;;;13.97;;
16890;SDS011;8562;52.246;20.966;2023-03-01T04:12:19;23.47;;;11.93;;
16890;SDS011;8562;52.246;20.966;2023-03-01T04:14:48;23.70;;;12.93;;
16890;SDS011;8562;52.246;20.966;2023-03-01T04:17:13;24.87;;;13.00;;
16890;SDS011;8562;52.246;20.966;2023-03-01T04:19:38;26.53;;;13.67;;
16890;SDS011;8562;52.246;20.966;2023-03-01T04:22:04;22.37;;;11.77;;
16890;SDS011;8562;52.246;20.966;2023-03-01T04:24:37;22.83;;;12.27;;
16890;SDS011;8562;52.246;20.966;2023-03-01T04:27:02;21.30;;;12.10;;
16890;SDS011;8562;52.246;20.966;2023-03-01T04:29:28;25.23;;;13.40;;
16890;SDS011;8562;52.246;20.966;2023-03-01T04:31:53;20.87;;;11.10;;
16890;SDS011;8562;52.246;20.966;2023-03-01T04:34:18;16.77;;;12.40;;
16890;SDS011;8562;52.246;20.966;2023-03-01T04:36:43;25.53;;;14.50;;
16890;SDS011;8562;52.246;20.966;2023-03-01T04:39:09;18.57;;;12.37;;
16890;SDS011;8562;52.246;20.966;2023-03-01T04:41:37;23.87;;;12.23;;
16890;SDS011;8562;52.246;20.966;2023-03-01T04:44:04;17.20;;;10.07;;
16890;SDS011;8562;52.246;20.966;2023-03-01T04:46:29;25.93;;;13.07;;
16890;SDS011;8562;52.246;20.966;2023-03-01T04:48:54;21.87;;;12.90;;
16890;SDS011;8562;52.246;20.966;2023-03-01T04:51:20;29.50;;;14.43;;
16890;SDS011;8562;52.246;20.966;2023-03-01T04:53:45;26.13;;;13.93;;
16890;SDS011;8562;52.246;20.966;2023-03-01T04:56:11;25.13;;;12.00;;
16890;SDS011;8562;52.246;20.966;2023-03-01T04:58:36;18.23;;;12.97;;
16890;SDS011;8562;52.246;20.966;2023-03-01T05:01:07;22.00;;;13.47;;
16890;SDS011;8562;52.246;20.966;2023-03-01T05:03:40;26.43;;;13.83;;
16890;SDS011;8562;52.246;20.966;2023-03-01T05:06:05;19.00;;;11.70;;
16890;SDS011;8562;52.246;20.966;2023-03-01T05:08:30;24.27;;;12.23;;
16890;SDS011;8562;52.246;20.966;2023-03-01T05:10:59;22.97;;;13.37;;
16890;SDS011;8562;52.246;20.966;2023-03-01T05:13:24;23.93;;;11.93;;
16890;SDS011;8562;52.246;20.966;2023-03-01T05:15:54;22.57;;;12.77;;
16890;SDS011;8562;52.246;20.966;2023-03-01T05:18:19;23.13;;;13.13;;
16890;SDS011;8562;52.246;20.966;2023-03-01T05:20:45;23.80;;;13.50;;
16890;SDS011;8562;52.246;20.966;2023-03-01T05:23:10;28.63;;;13.53;;
16890;SDS011;8562;52.246;20.966;2023-03-01T05:25:35;24.67;;;12.83;;
16890;SDS011;8562;52.246;20.966;2023-03-01T05:28:05;29.57;;;12.77;;
16890;SDS011;8562;52.246;20.966;2023-03-01T05:30:32;27.27;;;15.63;;
16890;SDS011;8562;52.246;20.966;2023-03-01T05:32:57;23.07;;;12.73;;
16890;SDS011;8562;52.246;20.966;2023-03-01T05:35:23;23.77;;;13.90;;
16890;SDS011;8562;52.246;20.966;2023-03-01T05:37:49;27.13;;;12.43;;
16890;SDS011;8562;52.246;20.966;2023-03-01T05:40:18;31.13;;;13.30;;
16890;SDS011;8562;52.246;20.966;2023-03-01T05:42:44;21.67;;;13.13;;
16890;SDS011;8562;52.246;20.966;2023-03-01T05:45:10;25.30;;;14.90;;
16890;SDS011;8562;52.246;20.966;2023-03-01T05:47:35;28.63;;;14.23;;
16890;SDS011;8562;52.246;20.966;2023-03-01T05:50:01;26.40;;;15.33;;
16890;SDS011;8562;52.246;20.966;2023-03-01T05:52:26;18.67;;;12.70;;
16890;SDS011;8562;52.246;20.966;2023-03-01T05:54:51;22.50;;;12.77;;
16890;SDS011;8562;52.246;20.966;2023-03-01T05:57:17;24.50;;;13.40;;
16890;SDS011;8562;52.246;20.966;2023-03-01T05:59:42;23.97;;;13.40;;
16890;SDS011;8562;52.246;20.966;2023-03-01T06:02:07;22.10;;;11.80;;
16890;SDS011;8562;52.246;20.966;2023-03-01T06:04:33;30.70;;;14.63;;
16890;SDS011;8562;52.246;20.966;2023-03-01T06:06:58;24.40;;;11.87;;
16890;SDS011;8562;52.246;20.966;2023-03-01T06:09:23;25.80;;;15.03;;
16890;SDS011;8562;52.246;20.966;2023-03-01T06:11:51;25.10;;;13.60;;
16890;SDS011;8562;52.246;20.966;2023-03-01T06:14:16;19.90;;;12.07;;
16890;SDS011;8562;52.246;20.966;2023-03-01T06:16:41;26.67;;;15.37;;
16890;SDS011;8562;52.246;20.966;2023-03-01T06:19:07;18.10;;;12.70;;
16890;SDS011;8562;52.246;20.966;2023-03-01T06:21:32;22.77;;;12.13;;
16890;SDS011;8562;52.246;20.966;2023-03-01T06:23:57;16.03;;;11.00;;
16890;SDS011;8562;52.246;20.966;2023-03-01T06:26:22;24.63;;;13.63;;
16890;SDS011;8562;52.246;20.966;2023-03-01T06:28:48;21.47;;;11.10;;
16890;SDS011;8562;52.246;20.966;2023-03-01T06:31:13;21.50;;;11.97;;
16890;SDS011;8562;52.246;20.966;2023-03-01T06:33:38;24.27;;;13.63;;
16890;SDS011;8562;52.246;20.966;2023-03-01T06:36:04;20.70;;;13.17;;
16890;SDS011;8562;52.246;20.966;2023-03-01T06:38:29;25.63;;;13.20;;
16890;SDS011;8562;52.246;20.966;2023-03-01T06:40:55;24.50;;;13.23;;
16890;SDS011;8562;52.246;20.966;2023-03-01T06:43:21;23.53;;;12.47;;
16890;SDS011;8562;52.246;20.966;2023-03-01T06:45:46;29.87;;;13.43;;
16890;SDS011;8562;52.246;20.966;2023-03-01T06:48:12;22.47;;;13.97;;
16890;SDS011;8562;52.246;20.966;2023-03-01T06:50:37;21.37;;;13.07;;
16890;SDS011;8562;52.246;20.966;2023-03-01T06:53:02;24.43;;;12.60;;
16890;SDS011;8562;52.246;20.966;2023-03-01T06:55:28;22.33;;;13.13;;
16890;SDS011;8562;52.246;20.966;2023-03-01T06:57:54;22.97;;;13.57;;
16890;SDS011;8562;52.246;20.966;2023-03-01T07:00:21;25.70;;;13.73;;
16890;SDS011;8562;52.246;20.966;2023-03-01T07:02:46;25.60;;;12.80;;
16890;SDS011;8562;52.246;20.966;2023-03-01T07:05:11;22.47;;;14.37;;
16890;SDS011;8562;52.246;20.966;2023-03-01T07:07:37;25.20;;;13.83;;
16890;SDS011;8562;52.246;20.966;2023-03-01T07:10:02;20.10;;;12.10;;
16890;SDS011;8562;52.246;20.966;2023-03-01T07:12:27;19.77;;;11.50;;
16890;SDS011;8562;52.246;20.966;2023-03-01T07:14:53;24.23;;;13.53;;
16890;SDS011;8562;52.246;20.966;2023-03-01T07:17:18;26.67;;;12.43;;
16890;SDS011;8562;52.246;20.966;2023-03-01T07:19:43;18.57;;;11.20;;
16890;SDS011;8562;52.246;20.966;2023-03-01T07:22:09;24.03;;;12.93;;
16890;SDS011;8562;52.246;20.966;2023-03-01T07:24:35;21.97;;;13.53;;
16890;SDS011;8562;52.246;20.966;2023-03-01T07:27:00;23.43;;;11.97;;
16890;SDS011;8562;52.246;20.966;2023-03-01T07:29:25;19.57;;;11.57;;
16890;SDS011;8562;52.246;20.966;2023-03-01T07:31:51;23.27;;;11.87;;
16890;SDS011;8562;52.246;20.966;2023-03-01T07:34:16;26.80;;;10.60;;
16890;SDS011;8562;52.246;20.966;2023-03-01T07:36:41;18.30;;;11.57;;
16890;SDS011;8562;52.246;20.966;2023-03-01T07:39:09;21.97;;;13.80;;
16890;SDS011;8562;52.246;20.966;2023-03-01T07:41:34;29.57;;;13.40;;
16890;SDS011;8562;52.246;20.966;2023-03-01T07:43:59;25.63;;;12.50;;
16890;SDS011;8562;52.246;20.966;2023-03-01T07:46:25;25.40;;;12.53;;
16890;SDS011;8562;52.246;20.966;2023-03-01T07:48:50;20.90;;;12.27;;
16890;SDS011;8562;52.246;20.966;2023-03-01T07:51:15;19.60;;;11.17;;
16890;SDS011;8562;52.246;20.966;2023-03-01T07:53:41;22.70;;;12.53;;
16890;SDS011;8562;52.246;20.966;2023-03-01T07:56:10;12.60;;;10.37;;
16890;SDS011;8562;52.246;20.966;2023-03-01T07:58:36;19.97;;;11.90;;
16890;SDS011;8562;52.246;20.966;2023-03-01T08:01:02;25.67;;;13.03;;
16890;SDS011;8562;52.246;20.966;2023-03-01T08:03:28;21.70;;;11.93;;
16890;SDS011;8562;52.246;20.966;2023-03-01T08:05:53;23.13;;;11.80;;
16890;SDS011;8562;52.246;20.966;2023-03-01T08:08:19;20.90;;;10.23;;
16890;SDS011;8562;52.246;20.966;2023-03-01T08:10:44;23.40;;;11.00;;
16890;SDS011;8562;52.246;20.966;2023-03-01T08:13:10;23.50;;;12.10;;
16890;SDS011;8562;52.246;20.966;2023-03-01T08:15:35;21.67;;;11.00;;
16890;SDS011;8562;52.246;20.966;2023-03-01T08:18:00;31.23;;;11.07;;
16890;SDS011;8562;52.246;20.966;2023-03-01T08:20:25;18.77;;;10.20;;
16890;SDS011;8562;52.246;20.966;2023-03-01T08:22:51;17.90;;;11.87;;
16890;SDS011;8562;52.246;20.966;2023-03-01T08:25:16;17.70;;;11.23;;
16890;SDS011;8562;52.246;20.966;2023-03-01T08:27:41;20.37;;;11.43;;
16890;SDS011;8562;52.246;20.966;2023-03-01T08:30:07;18.30;;;9.53;;
16890;SDS011;8562;52.246;20.966;2023-03-01T08:32:36;18.83;;;11.43;;
16890;SDS011;8562;52.246;20.966;2023-03-01T08:35:02;20.20;;;11.90;;
16890;SDS011;8562;52.246;20.966;2023-03-01T08:37:27;15.47;;;9.70;;
16890;SDS011;8562;52.246;20.966;2023-03-01T08:39:56;24.37;;;10.40;;
16890;SDS011;8562;52.246;20.966;2023-03-01T08:42:21;19.70;;;10.37;;
16890;SDS011;8562;52.246;20.966;2023-03-01T08:44:46;18.37;;;9.93;;
16890;SDS011;8562;52.246;20.966;2023-03-01T08:47:13;15.03;;;8.23;;
16890;SDS011;8562;52.246;20.966;2023-03-01T08:49:39;17.73;;;9.43;;
16890;SDS011;8562;52.246;20.966;2023-03-01T08:52:04;21.83;;;9.97;;
16890;SDS011;8562;52.246;20.966;2023-03-01T08:54:29;20.50;;;9.47;;
16890;SDS011;8562;52.246;20.966;2023-03-01T08:56:55;15.57;;;9.33;;
16890;SDS011;8562;52.246;20.966;2023-03-01T08:59:20;14.50;;;9.40;;
16890;SDS011;8562;52.246;20.966;2023-03-01T09:01:46;21.63;;;11.17;;
16890;SDS011;8562;52.246;20.966;2023-03-01T09:04:11;22.60;;;11.33;;
16890;SDS011;8562;52.246;20.966;2023-03-01T09:06:37;21.07;;;12.37;;
16890;SDS011;8562;52.246;20.966;2023-03-01T09:09:03;17.20;;;8.87;;
16890;SDS011;8562;52.246;20.966;2023-03-01T09:11:29;14.53;;;8.07;;
16890;SDS011;8562;52.246;20.966;2023-03-01T09:13:54;11.57;;;6.80;;
16890;SDS011;8562;52.246;20.966;2023-03-01T09:16:20;10.30;;;6.37;;
16890;SDS011;8562;52.246;20.966;2023-03-01T09:18:48;16.00;;;8.13;;
16890;SDS011;8562;52.246;20.966;2023-03-01T09:21:15;18.50;;;10.07;;
16890;SDS011;8562;52.246;20.966;2023-03-01T09:23:42;21.13;;;9.20;;
16890;SDS011;8562;52.246;20.966;2023-03-01T09:26:08;15.73;;;9.77;;
16890;SDS011;8562;52.246;20.966;2023-03-01T09:28:38;13.60;;;8.87;;
16890;SDS011;8562;52.246;20.966;2023-03-01T09:31:03;14.73;;;8.47;;
16890;SDS011;8562;52.246;20.966;2023-03-01T09:33:29;16.90;;;10.57;;
16890;SDS011;8562;52.246;20.966;2023-03-01T09:36:03;14.47;;;8.77;;
16890;SDS011;8562;52.246;20.966;2023-03-01T09:38:29;15.73;;;8.47;;
16890;SDS011;8562;52.246;20.966;2023-03-01T09:40:54;14.27;;;9.40;;
16890;SDS011;8562;52.246;20.966;2023-03-01T09:43:22;11.87;;;8.33;;
16890;SDS011;8562;52.246;20.966;2023-03-01T09:45:48;18.03;;;9.37;;
16890;SDS011;8562;52.246;20.966;2023-03-01T09:48:18;15.60;;;9.13;;
16890;SDS011;8562;52.246;20.966;2023-03-01T09:50:43;12.67;;;8.00;;
16890;SDS011;8562;52.246;20.966;2023-03-01T09:53:15;15.70;;;8.33;;
16890;SDS011;8562;52.246;20.966;2023-03-01T09:55:45;12.07;;;6.87;;
16890;SDS011;8562;52.246;20.966;2023-03-01T10:00:54;14.67;;;8.00;;
16890;SDS011;8562;52.246;20.966;2023-03-01T10:03:26;10.93;;;7.40;;
16890;SDS011;8562;52.246;20.966;2023-03-01T10:06:04;14.83;;;7.70;;
16890;SDS011;8562;52.246;20.966;2023-03-01T10:09:05;11.97;;;8.20;;
16890;SDS011;8562;52.246;20.966;2023-03-01T10:11:32;16.67;;;7.80;;
16890;SDS011;8562;52.246;20.966;2023-03-01T10:14:02;14.87;;;7.93;;
16890;SDS011;8562;52.246;20.966;2023-03-01T10:19:05;13.90;;;7.13;;
16890;SDS011;8562;52.246;20.966;2023-03-01T10:21:34;13.63;;;7.53;;
16890;SDS011;8562;52.246;20.966;2023-03-01T10:24:10;7.47;;;5.73;;
16890;SDS011;8562;52.246;20.966;2023-03-01T10:26:44;12.20;;;6.10;;
16890;SDS011;8562;52.246;20.966;2023-03-01T10:29:12;12.97;;;7.70;;
16890;SDS011;8562;52.246;20.966;2023-03-01T10:31:39;10.00;;;5.97;;
16890;SDS011;8562;52.246;20.966;2023-03-01T10:34:22;10.10;;;6.70;;
16890;SDS011;8562;52.246;20.966;2023-03-01T10:36:53;20.67;;;4.80;;
16890;SDS011;8562;52.246;20.966;2023-03-01T10:39:21;10.97;;;5.57;;
16890;SDS011;8562;52.246;20.966;2023-03-01T10:44:34;11.13;;;6.57;;
16890;SDS011;8562;52.246;20.966;2023-03-01T10:47:00;10.80;;;6.90;;
16890;SDS011;8562;52.246;20.966;2023-03-01T10:49:26;8.83;;;5.73;;
16890;SDS011;8562;52.246;20.966;2023-03-01T10:51:52;9.60;;;4.87;;
16890;SDS011;8562;52.246;20.966;2023-03-01T10:56:47;8.53;;;5.73;;
16890;SDS011;8562;52.246;20.966;2023-03-01T10:59:19;14.17;;;6.53;;
16890;SDS011;8562;52.246;20.966;2023-03-01T11:01:46;11.80;;;6.60;;
16890;SDS011;8562;52.246;20.966;2023-03-01T11:04:25;12.53;;;5.90;;
16890;SDS011;8562;52.246;20.966;2023-03-01T11:06:57;10.97;;;6.10;;
16890;SDS011;8562;52.246;20.966;2023-03-01T11:09:23;9.17;;;4.90;;
16890;SDS011;8562;52.246;20.966;2023-03-01T11:11:53;9.47;;;7.20;;
16890;SDS011;8562;52.246;20.966;2023-03-01T11:14:22;10.63;;;5.17;;
16890;SDS011;8562;52.246;20.966;2023-03-01T11:16:49;13.33;;;6.33;;
16890;SDS011;8562;52.246;20.966;2023-03-01T11:19:22;10.07;;;5.70;;
16890;SDS011;8562;52.246;20.966;2023-03-01T11:24:13;9.33;;;5.40;;
16890;SDS011;8562;52.246;20.966;2023-03-01T11:26:40;12.20;;;6.00;;
16890;SDS011;8562;52.246;20.966;2023-03-01T11:29:10;12.30;;;6.00;;
16890;SDS011;8562;52.246;20.966;2023-03-01T11:31:37;13.63;;;6.57;;
16890;SDS011;8562;52.246;20.966;2023-03-01T11:36:36;20.23;;;6.30;;
16890;SDS011;8562;52.246;20.966;2023-03-01T11:44:36;9.23;;;5.13;;
16890;SDS011;8562;52.246;20.966;2023-03-01T11:47:24;11.40;;;5.77;;
16890;SDS011;8562;52.246;20.966;2023-03-01T11:50:07;9.10;;;5.60;;
16890;SDS011;8562;52.246;20.966;2023-03-01T11:55:17;6.43;;;5.07;;
16890;SDS011;8562;52.246;20.966;2023-03-01T12:03:22;12.20;;;5.63;;
16890;SDS011;8562;52.246;20.966;2023-03-01T12:08:15;6.60;;;4.97;;
16890;SDS011;8562;52.246;20.966;2023-03-01T12:11:01;10.83;;;5.67;;
16890;SDS011;8562;52.246;20.966;2023-03-01T12:19:01;5.53;;;4.33;;
16890;SDS011;8562;52.246;20.966;2023-03-01T12:28:42;9.43;;;6.07;;
16890;SDS011;8562;52.246;20.966;2023-03-01T12:33:56;8.30;;;4.17;;
16890;SDS011;8562;52.246;20.966;2023-03-01T12:38:56;8.83;;;5.33;;
16890;SDS011;8562;52.246;20.966;2023-03-01T12:41:29;6.73;;;4.77;;
16890;SDS011;8562;52.246;20.966;2023-03-01T12:44:05;9.63;;;4.87;;
16890;SDS011;8562;52.246;20.966;2023-03-01T12:46:41;10.73;;;5.07;;
16890;SDS011;8562;52.246;20.966;2023-03-01T12:49:13;10.23;;;5.20;;
16890;SDS011;8562;52.246;20.966;2023-03-01T12:51:39;7.73;;;5.07;;
16890;SDS011;8562;52.246;20.966;2023-03-01T12:54:15;8.90;;;3.93;;
16890;SDS011;8562;52.246;20.966;2023-03-01T12:56:41;4.67;;;3.97;;
16890;SDS011;8562;52.246;20.966;2023-03-01T12:59:21;7.13;;;3.70;;
16890;SDS011;8562;52.246;20.966;2023-03-01T13:04:57;7.33;;;4.73;;
16890;SDS011;8562;52.246;20.966;2023-03-01T13:07:27;7.10;;;4.53;;
16890;SDS011;8562;52.246;20.966;2023-03-01T13:12:42;5.77;;;4.33;;
16890;SDS011;8562;52.246;20.966;2023-03-01T13:15:24;8.40;;;5.10;;
16890;SDS011;8562;52.246;20.966;2023-03-01T13:17:50;7.23;;;5.23;;
16890;SDS011;8562;52.246;20.966;2023-03-01T13:20:17;9.83;;;5.73;;
16890;SDS011;8562;52.246;20.966;2023-03-01T13:22:44;11.67;;;5.77;;
16890;SDS011;8562;52.246;20.966;2023-03-01T13:25:15;6.80;;;5.40;;
16890;SDS011;8562;52.246;20.966;2023-03-01T13:27:41;8.90;;;6.07;;
16890;SDS011;8562;52.246;20.966;2023-03-01T13:30:38;8.63;;;5.07;;
16890;SDS011;8562;52.246;20.966;2023-03-01T13:32:52;7.60;;;4.97;;
16890;SDS011;8562;52.246;20.966;2023-03-01T13:35:41;6.60;;;4.23;;
16890;SDS011;8562;52.246;20.966;2023-03-01T13:46:17;7.37;;;4.57;;
16890;SDS011;8562;52.246;20.966;2023-03-01T13:48:44;5.80;;;4.23;;
16890;SDS011;8562;52.246;20.966;2023-03-01T13:51:10;7.13;;;4.77;;
16890;SDS011;8562;52.246;20.966;2023-03-01T13:53:37;9.30;;;4.47;;
16890;SDS011;8562;52.246;20.966;2023-03-01T14:01:01;5.03;;;4.40;;
16890;SDS011;8562;52.246;20.966;2023-03-01T14:03:27;8.67;;;4.57;;
16890;SDS011;8562;52.246;20.966;2023-03-01T14:06:06;8.13;;;4.47;;
16890;SDS011;8562;52.246;20.966;2023-03-01T14:08:33;7.63;;;4.60;;
16890;SDS011;8562;52.246;20.966;2023-03-01T14:11:20;5.90;;;4.87;;
16890;SDS011;8562;52.246;20.966;2023-03-01T14:21:30;9.77;;;5.03;;
16890;SDS011;8562;52.246;20.966;2023-03-01T14:23:56;8.77;;;5.60;;
16890;SDS011;8562;52.246;20.966;2023-03-01T14:26:22;5.30;;;4.40;;
16890;SDS011;8562;52.246;20.966;2023-03-01T14:28:48;7.43;;;4.50;;
16890;SDS011;8562;52.246;20.966;2023-03-01T14:33:55;6.07;;;4.13;;
16890;SDS011;8562;52.246;20.966;2023-03-01T14:36:25;5.37;;;4.13;;
16890;SDS011;8562;52.246;20.966;2023-03-01T14:38:50;6.43;;;4.53;;
16890;SDS011;8562;52.246;20.966;2023-03-01T14:41:20;7.27;;;4.50;;
16890;SDS011;8562;52.246;20.966;2023-03-01T14:43:47;8.30;;;4.63;;
16890;SDS011;8562;52.246;20.966;2023-03-01T14:46:17;8.30;;;5.77;;
16890;SDS011;8562;52.246;20.966;2023-03-01T14:48:42;12.90;;;5.37;;
16890;SDS011;8562;52.246;20.966;2023-03-01T14:51:07;8.23;;;5.10;;
16890;SDS011;8562;52.246;20.966;2023-03-01T14:53:32;6.40;;;5.70;;
16890;SDS011;8562;52.246;20.966;2023-03-01T14:56:01;5.40;;;4.23;;
16890;SDS011;8562;52.246;20.966;2023-03-01T14:58:31;8.63;;;5.80;;
16890;SDS011;8562;52.246;20.966;2023-03-01T15:00:58;9.97;;;4.97;;
16890;SDS011;8562;52.246;20.966;2023-03-01T15:03:25;7.37;;;5.27;;
16890;SDS011;8562;52.246;20.966;2023-03-01T15:05:51;7.70;;;4.77;;
16890;SDS011;8562;52.246;20.966;2023-03-01T15:08:19;8.03;;;5.47;;
16890;SDS011;8562;52.246;20.966;2023-03-01T15:10:55;9.47;;;5.10;;
16890;SDS011;8562;52.246;20.966;2023-03-01T15:13:22;7.83;;;5.10;;
16890;SDS011;8562;52.246;20.966;2023-03-01T15:15:47;7.37;;;5.00;;
16890;SDS011;8562;52.246;20.966;2023-03-01T15:20:44;9.17;;;6.63;;
16890;SDS011;8562;52.246;20.966;2023-03-01T15:23:18;8.30;;;5.63;;
16890;SDS011;8562;52.246;20.966;2023-03-01T15:25:44;10.40;;;5.97;;
16890;SDS011;8562;52.246;20.966;2023-03-01T15:28:17;8.07;;;6.00;;
16890;SDS011;8562;52.246;20.966;2023-03-01T15:30:43;8.70;;;5.37;;
16890;SDS011;8562;52.246;20.966;2023-03-01T15:35:51;7.60;;;5.50;;
16890;SDS011;8562;52.246;20.966;2023-03-01T15:40:50;13.63;;;6.67;;
16890;SDS011;8562;52.246;20.966;2023-03-01T15:46:28;11.23;;;5.73;;
16890;SDS011;8562;52.246;20.966;2023-03-01T15:48:57;11.63;;;6.70;;
16890;SDS011;8562;52.246;20.966;2023-03-01T15:51:30;7.53;;;5.33;;
16890;SDS011;8562;52.246;20.966;2023-03-01T15:53:57;10.10;;;5.17;;
16890;SDS011;8562;52.246;20.966;2023-03-01T15:56:23;12.03;;;6.10;;
16890;SDS011;8562;52.246;20.966;2023-03-01T15:58:48;12.27;;;5.87;;
16890;SDS011;8562;52.246;20.966;2023-03-01T16:01:14;7.30;;;4.17;;
16890;SDS011;8562;52.246;20.966;2023-03-01T16:03:40;9.67;;;5.50;;
16890;SDS011;8562;52.246;20.966;2023-03-01T16:06:05;10.13;;;5.77;;
16890;SDS011;8562;52.246;20.966;2023-03-01T16:08:30;11.67;;;5.70;;